x

West Moresby (46208) Wave Buoy

5:00am - Sun 1st Feb 2015 All times are PST. -8 hours from GMT.

  • Sig Wave height 10.2ft
  • Peak Period 8s
  • Wind
    13mph, 16mph gusts
  • Sea Temp 49°f
  • Air Temp 49°f
  • Sea Pressure 1002.9mb
  • West Moresby
  • West Moresby

More Historic Weather Station data

Upgrade to MSW Pro to gain access to the past 30 days of data for over 8000 Wavebouys and Weather Stations around the globe.

Join Pro

Comparision Forecast

View Surf forecast
   
Sun 02/01 5:00am 10ft 8s 13 16 mph 1002.9mb 49f 49f
4:00am 10ft 8s 16 20 mph 1003.2mb 49f 49f
3:00am 11ft 7s 20 25 mph 1003.7mb 49f 49f
2:00am 11.5ft 7s 27 31 mph 1004mb 49f 49f
1:00am 11.5ft 7s 29 36 mph 1004.9mb 49f 48f
12:00am 10ft 9s 31 38 mph 1005.8mb 49f 48f
Sat 01/31 11:00pm 9ft 7s 29 36 mph 1006.6mb 49f 49f
10:00pm 8.5ft 7s 29 36 mph 1007.4mb 49f 49f
9:00pm 8ft 7s 27 36 mph 1008.3mb 49f 49f
8:00pm 7ft 6s 29 36 mph 1009.2mb 49f 49f
7:00pm 6.5ft 6s 27 36 mph 1010.5mb 49f 49f
6:00pm 6.5ft 6s 27 34 mph 1011.4mb 49f 48f
5:00pm 6ft 5s 27 31 mph 1012.6mb 49f 48f
4:00pm 6ft 5s 25 29 mph 1014.1mb 49f 48f
2:00pm 5ft 5s 25 29 mph 1016.7mb 49f 48f
1:00pm 5ft 5s 20 25 mph 1017.7mb 49f 48f
12:00pm 5ft 5s 22 27 mph 1018.7mb 49f 49f
11:00am 5ft 5s 22 25 mph 1019.3mb 49f 48f
10:00am 5.5ft 5s 22 27 mph 1019.7mb 49f 47f
9:00am 6ft 5s 22 27 mph 1019.6mb 49f 48f
8:00am 5.5ft 12s 22 25 mph 1020.4mb 49f 47f
7:00am 5.5ft 12s 22 27 mph 1020.8mb 49f 47f
6:00am 5ft 13s 18 20 mph 1021.5mb 49f 47f
5:00am 6ft 13s 18 22 mph 1021.8mb 49f 48f
4:00am 5.5ft 13s 18 20 mph 1022mb 49f 48f
3:00am 6ft 12s 16 18 mph 1022.8mb 49f 47f
2:00am 5.5ft 12s 16 18 mph 1023.6mb 49f 47f
1:00am 5ft 12s 13 18 mph 1024mb 49f 48f
12:00am 6ft 12s 13 16 mph 1024.4mb 49f 48f
Fri 01/30 11:00pm 5ft 14s 11 13 mph 1024.7mb 49f 48f
10:00pm 6ft 12s 11 13 mph 1025mb 49f 48f
9:00pm 6ft 13s 11 13 mph 1025.1mb 49f 48f
8:00pm 5.5ft 14s 11 13 mph 1024.9mb 49f 49f
7:00pm 6ft 14s 4 7 mph 1024.5mb 50f 49f
6:00pm 6ft 13s 7 9 mph 1024.6mb 50f 49f
5:00pm 6ft 12s 9 13 mph 1024.9mb 50f 48f
4:00pm 6ft 13s 13 18 mph 1024.5mb 50f 48f
3:00pm 6ft 12s 13 18 mph 1024.8mb 49f 48f
2:00pm 7ft 12s 11 13 mph 1025.2mb 49f 48f
1:00pm 6.5ft 14s 9 11 mph 1024.8mb 49f 49f
12:00pm 6.5ft 12s 9 11 mph 1024mb 50f 49f
11:00am 6ft 12s 7 9 mph 1023.5mb 49f 49f
10:00am 6ft 14s 11 18 mph 1021.8mb 49f 48f
9:00am 6.5ft 15s 20 25 mph 1020.2mb 49f 48f
8:00am 6ft 12s 18 22 mph 1019.5mb 49f 47f
7:00am 6ft 14s 16 20 mph 1019mb 49f 47f
6:00am 6ft 13s 18 22 mph 1018.1mb 49f 47f
5:00am 6ft 14s 18 22 mph 1018mb 49f 46f
4:00am 6ft 9s 18 22 mph 1017.5mb 49f 46f
3:00am 6ft 14s 16 20 mph 1017.1mb 49f 46f
2:00am 6ft 15s 13 16 mph 1017mb 49f 46f
1:00am 7ft 10s 16 20 mph 1017mb 49f 46f
12:00am 6.5ft 10s 16 20 mph 1017.8mb 49f 46f
Thu 01/29 11:00pm 6.5ft 10s 13 16 mph 1018.8mb 49f 46f
10:00pm 6.5ft 10s 16 20 mph 1019.7mb 49f 46f
9:00pm 6.5ft 11s 13 16 mph 1020.1mb 49f 47f
8:00pm 7ft 10s 11 13 mph 1021.1mb 49f 48f
7:00pm 7ft 11s 9 11 mph 1021.5mb 49f 48f
6:00pm 7.5ft 10s 7 9 mph 1022.2mb 49f 48f
5:00pm 8ft 10s 7 9 mph 1021.9mb 49f 48f
4:00pm 8ft 10s 4
mph
1022.7mb 49f 48f
3:00pm 8.5ft 10s 2 4 mph 1023.2mb 49f 48f
2:00pm 9ft 10s 7 9 mph 1023.1mb 49f 48f
1:00pm 9ft 10s 9 11 mph 1023.4mb 49f 48f
12:00pm 9.5ft 10s 7 9 mph 1023.4mb 49f 48f
11:00am 9ft 9s 4 7 mph 1023.2mb 49f 48f
10:00am 9ft 11s 9 11 mph 1022.8mb 49f 48f
9:00am 9ft 10s 9 11 mph 1022.3mb 49f 48f
8:00am 8ft 11s 9 13 mph 1022mb 49f 48f
7:00am 9ft 11s 4
mph
1021.8mb 49f 48f
6:00am 9ft 10s 2 4 mph 1021.5mb 49f 49f
5:00am 10ft 11s 2 4 mph 1021.8mb 49f 49f
4:00am 10.5ft 10s 4 9 mph 1021.9mb 49f 49f
3:00am 11.5ft 10s 7 9 mph 1021.7mb 49f 49f
2:00am 11ft 10s 9 11 mph 1021.1mb 49f 49f
1:00am 12ft 10s 16 20 mph 1020.6mb 49f 49f
12:00am 13ft 10s 20 25 mph 1020.2mb 49f 49f
Wed 01/28 11:00pm 13ft 10s 25 34 mph 1019.6mb 49f 49f
10:00pm 13.5ft 10s 27 34 mph 1019.2mb 49f 48f
9:00pm 12.5ft 10s 27 34 mph 1019mb 49f 48f
8:00pm 13ft 11s 27 34 mph 1018.7mb 49f 49f
7:00pm 13ft 10s 29 36 mph 1018.5mb 49f 49f
6:00pm 11ft 11s 29 36 mph 1018.6mb 49f 49f
5:00pm 11.5ft 9s 27 34 mph 1018.7mb 49f 49f
4:00pm 11ft 8s 29 36 mph 1018.8mb 49f 49f
3:00pm 10ft 9s 27 36 mph 1019mb 49f 49f